Time;durP1;ratioP1;P1;durP2;ratioP2;P2;SDS_P1;SDS_P2;PMS_P1;PMS_P2;Temp;Humidity;BMP_temperature;BMP_pressure;BME280_temperature;BME280_humidity;BME280_pressure;Samples;Min_cycle;Max_cycle;Signal;HPM_P1;HPM_P2
2023/05/29 00:00:20;;;;;;;13.57;5.35;;;15.40;85.90;;;;;;4977112;28;20099;-79
2023/05/29 00:02:50;;;;;;;9.88;4.65;;;15.40;86.20;;;;;;4976011;28;20027;-78
2023/05/29 00:05:17;;;;;;;9.43;5.43;;;15.30;86.40;;;;;;4976128;28;20062;-78
2023/05/29 00:07:46;;;;;;;12.73;5.70;;;15.30;86.70;;;;;;4979817;28;20511;-80
2023/05/29 00:10:11;;;;;;;8.73;5.32;;;15.20;86.90;;;;;;4974204;28;20043;-78
2023/05/29 00:12:38;;;;;;;10.18;5.30;;;15.20;87.10;;;;;;4973396;28;20033;-78
2023/05/29 00:15:05;;;;;;;9.55;4.97;;;15.20;87.40;;;;;;4976539;28;20038;-79
2023/05/29 00:17:32;;;;;;;11.15;4.78;;;15.20;87.30;;;;;;4975208;28;20023;-79
2023/05/29 00:19:58;;;;;;;9.27;5.28;;;15.10;87.50;;;;;;4980674;28;20019;-79
2023/05/29 00:22:25;;;;;;;10.05;5.82;;;15.10;87.60;;;;;;4975451;28;20027;-80
2023/05/29 00:24:51;;;;;;;9.90;5.10;;;15.00;87.80;;;;;;4978075;28;20084;-79
2023/05/29 00:27:16;;;;;;;10.73;5.72;;;14.90;88.00;;;;;;4983147;28;20475;-78
2023/05/29 00:29:42;;;;;;;10.10;5.13;;;14.90;88.20;;;;;;4974355;28;20110;-78
2023/05/29 00:32:07;;;;;;;9.85;5.55;;;14.90;88.40;;;;;;4975135;28;20450;-79
2023/05/29 00:34:33;;;;;;;16.70;5.38;;;14.80;88.50;;;;;;4973788;28;20078;-78
2023/05/29 00:36:59;;;;;;;12.02;5.32;;;14.90;88.80;;;;;;4974458;28;20445;-79
2023/05/29 00:39:25;;;;;;;8.43;5.10;;;14.80;89.00;;;;;;4990065;28;20027;-78
2023/05/29 00:41:51;;;;;;;11.43;5.05;;;14.70;89.10;;;;;;4973832;28;20050;-78
2023/05/29 00:44:21;;;;;;;9.32;5.28;;;14.80;89.40;;;;;;4990581;28;20007;-78
2023/05/29 00:46:48;;;;;;;7.90;5.03;;;14.60;89.40;;;;;;4974336;28;20392;-79
2023/05/29 00:49:14;;;;;;;11.18;4.60;;;14.60;89.70;;;;;;4986869;28;20041;-80
2023/05/29 00:51:41;;;;;;;10.27;4.60;;;14.60;89.80;;;;;;4972737;28;20027;-80
2023/05/29 00:54:07;;;;;;;13.98;5.20;;;14.50;90.00;;;;;;4975914;28;20049;-78
2023/05/29 00:56:35;;;;;;;7.97;4.80;;;14.50;90.10;;;;;;4969688;28;20397;-78
2023/05/29 00:59:00;;;;;;;10.52;4.53;;;14.50;90.20;;;;;;4974700;28;20047;-80
2023/05/29 01:01:26;;;;;;;8.75;4.72;;;14.50;90.20;;;;;;4973488;28;20042;-78
2023/05/29 01:03:57;;;;;;;10.50;4.95;;;14.50;90.20;;;;;;4974959;28;20026;-81
2023/05/29 01:06:23;;;;;;;6.53;4.10;;;14.40;90.20;;;;;;4975042;28;20022;-79
2023/05/29 01:08:49;;;;;;;10.23;4.93;;;14.40;90.20;;;;;;4976176;28;20041;-78
2023/05/29 01:11:33;;;;;;;8.25;4.68;;;14.40;90.20;;;;;;4970158;28;20035;-78
2023/05/29 01:14:05;;;;;;;8.55;4.82;;;14.40;90.20;;;;;;4991994;28;20030;-78
2023/05/29 01:16:38;;;;;;;8.77;4.75;;;14.30;90.40;;;;;;4974597;28;20030;-79
2023/05/29 01:19:55;;;;;;;11.40;5.10;;;14.40;90.50;;;;;;4971044;28;20575;-78
2023/05/29 01:22:20;;;;;;;10.80;5.13;;;14.30;90.50;;;;;;4970823;28;20146;-79
2023/05/29 01:24:52;;;;;;;8.85;5.10;;;14.20;90.60;;;;;;4976773;28;20050;-78
2023/05/29 01:27:21;;;;;;;11.48;5.07;;;14.20;90.80;;;;;;4973907;28;20027;-78
2023/05/29 01:29:49;;;;;;;8.98;5.20;;;14.20;90.90;;;;;;4978020;28;20023;-77
2023/05/29 01:32:15;;;;;;;9.90;5.18;;;14.20;91.00;;;;;;4976482;28;20043;-79
2023/05/29 01:34:40;;;;;;;9.73;4.90;;;14.20;91.00;;;;;;4976291;28;20023;-78
2023/05/29 01:37:06;;;;;;;10.75;5.03;;;14.10;91.10;;;;;;4977431;28;20051;-78
2023/05/29 01:39:32;;;;;;;11.10;5.47;;;14.10;91.20;;;;;;4969308;28;20104;-77
2023/05/29 01:41:59;;;;;;;10.27;4.93;;;14.10;91.30;;;;;;4990732;28;20030;-77
2023/05/29 01:44:29;;;;;;;7.43;4.57;;;14.00;91.30;;;;;;4975710;28;20033;-77
2023/05/29 01:46:55;;;;;;;8.25;4.43;;;14.00;91.40;;;;;;4979754;28;20048;-77
2023/05/29 01:49:23;;;;;;;10.80;4.50;;;14.00;91.50;;;;;;4990107;28;20113;-78
2023/05/29 01:51:48;;;;;;;9.52;5.00;;;13.90;91.60;;;;;;4978661;28;20027;-77
2023/05/29 01:54:14;;;;;;;9.45;5.15;;;13.80;91.70;;;;;;4982416;28;20114;-76
2023/05/29 01:57:18;;;;;;;11.43;5.72;;;13.80;91.90;;;;;;5150507;27;20518;-76
2023/05/29 01:59:44;;;;;;;9.80;5.15;;;13.70;92.20;;;;;;5146911;27;20101;-77
2023/05/29 02:02:14;;;;;;;10.65;5.72;;;13.70;92.30;;;;;;5152300;27;20048;-76
2023/05/29 02:04:40;;;;;;;13.93;4.88;;;13.60;92.40;;;;;;5148891;27;20033;-77
2023/05/29 02:07:06;;;;;;;11.55;5.20;;;13.60;92.50;;;;;;5145413;27;20011;-76
2023/05/29 02:09:34;;;;;;;9.32;4.88;;;13.50;92.60;;;;;;5139931;27;20566;-77
2023/05/29 02:12:01;;;;;;;9.05;4.78;;;13.50;92.60;;;;;;5131733;27;20018;-76
2023/05/29 02:14:27;;;;;;;9.63;4.00;;;13.50;92.70;;;;;;5128115;27;20043;-77
2023/05/29 02:16:53;;;;;;;7.75;4.43;;;13.50;92.70;;;;;;5127494;27;20046;-77
2023/05/29 02:19:19;;;;;;;8.73;5.13;;;13.40;92.80;;;;;;5129087;27;20045;-77
2023/05/29 02:21:46;;;;;;;10.02;4.90;;;13.40;92.80;;;;;;5122112;27;20020;-76
2023/05/29 02:24:15;;;;;;;8.25;4.47;;;13.40;93.00;;;;;;5125882;27;20039;-76
2023/05/29 02:26:44;;;;;;;8.93;4.50;;;13.30;93.10;;;;;;5130305;27;20502;-78
2023/05/29 02:29:12;;;;;;;8.55;4.65;;;13.30;93.10;;;;;;5130072;27;20023;-77
2023/05/29 02:31:38;;;;;;;9.77;5.05;;;13.30;93.20;;;;;;5126776;27;20055;-76
2023/05/29 02:34:04;;;;;;;9.55;4.93;;;13.20;93.20;;;;;;5126983;27;20058;-77
2023/05/29 02:36:32;;;;;;;10.32;4.85;;;13.20;93.30;;;;;;5129435;27;20027;-77
2023/05/29 02:38:58;;;;;;;11.10;4.78;;;13.20;93.40;;;;;;5126348;27;20473;-76
2023/05/29 02:41:23;;;;;;;10.75;4.53;;;13.10;93.40;;;;;;5129518;27;20039;-77
2023/05/29 02:43:52;;;;;;;11.32;4.85;;;13.10;93.60;;;;;;5126140;27;20042;-76
2023/05/29 02:46:21;;;;;;;9.13;4.13;;;13.10;93.60;;;;;;5131529;27;20481;-78
2023/05/29 02:48:50;;;;;;;11.98;5.47;;;13.10;93.70;;;;;;5128814;27;20407;-76
2023/05/29 02:51:15;;;;;;;10.57;4.60;;;13.10;93.80;;;;;;5126158;27;20114;-76
2023/05/29 02:53:41;;;;;;;9.15;4.53;;;13.00;93.80;;;;;;5131111;27;20059;-76
2023/05/29 02:56:15;;;;;;;8.07;4.60;;;13.00;93.90;;;;;;5121575;27;20110;-77
2023/05/29 02:58:44;;;;;;;9.75;5.20;;;13.00;94.00;;;;;;5125347;27;20055;-77
2023/05/29 03:01:13;;;;;;;10.35;4.65;;;12.90;94.10;;;;;;5129351;27;20386;-78
2023/05/29 03:03:41;;;;;;;9.32;4.57;;;12.90;94.20;;;;;;5131651;27;20019;-77
2023/05/29 03:06:12;;;;;;;6.72;4.15;;;12.90;94.30;;;;;;5131160;27;20147;-77
2023/05/29 03:08:40;;;;;;;12.38;4.55;;;12.80;94.40;;;;;;5124297;27;20062;-77
2023/05/29 03:11:10;;;;;;;9.75;4.63;;;12.80;94.50;;;;;;5121048;27;20043;-77
2023/05/29 03:13:36;;;;;;;9.02;4.90;;;12.80;94.60;;;;;;5116248;27;20422;-78
2023/05/29 03:16:02;;;;;;;6.90;4.30;;;12.70;94.70;;;;;;5115689;27;20107;-78
2023/05/29 03:18:27;;;;;;;9.90;4.25;;;12.70;94.80;;;;;;5119463;27;20042;-79
2023/05/29 03:20:54;;;;;;;7.13;4.55;;;12.70;94.80;;;;;;5122991;27;20081;-77
2023/05/29 03:23:20;;;;;;;9.40;5.00;;;12.70;94.80;;;;;;5114298;27;20027;-77
2023/05/29 03:25:46;;;;;;;9.35;4.80;;;12.60;94.90;;;;;;5109230;27;20153;-78
2023/05/29 03:28:20;;;;;;;8.40;4.13;;;12.60;95.00;;;;;;5117269;27;20449;-78
2023/05/29 03:30:46;;;;;;;9.93;5.00;;;12.60;95.10;;;;;;5116955;27;20474;-78
2023/05/29 03:33:21;;;;;;;15.00;4.50;;;12.50;95.20;;;;;;5114264;27;20146;-77
2023/05/29 03:35:47;;;;;;;7.55;4.65;;;12.50;95.30;;;;;;5110662;28;20106;-77
2023/05/29 03:38:15;;;;;;;8.55;4.80;;;12.50;95.40;;;;;;5112747;28;20108;-77
2023/05/29 03:40:44;;;;;;;11.07;5.03;;;12.50;95.50;;;;;;5113794;27;20015;-77
2023/05/29 03:43:10;;;;;;;9.25;4.40;;;12.50;95.50;;;;;;5113290;27;20027;-77
2023/05/29 03:45:35;;;;;;;9.77;5.20;;;12.50;95.60;;;;;;5112382;27;20028;-77
2023/05/29 03:48:01;;;;;;;12.20;4.95;;;12.50;95.70;;;;;;5117140;27;20020;-76
2023/05/29 03:50:32;;;;;;;9.10;4.90;;;12.50;95.80;;;;;;5118085;27;20372;-76
2023/05/29 03:52:58;;;;;;;10.00;4.75;;;12.50;95.90;;;;;;5110223;28;20020;-76
2023/05/29 03:55:25;;;;;;;7.47;4.15;;;12.40;95.80;;;;;;5117801;27;20103;-76
2023/05/29 03:57:51;;;;;;;7.97;4.28;;;12.40;95.80;;;;;;5112778;27;20032;-75
2023/05/29 04:00:18;;;;;;;7.97;4.55;;;12.40;95.90;;;;;;5112633;27;20073;-75
2023/05/29 04:02:43;;;;;;;10.10;4.50;;;12.30;96.00;;;;;;5114998;27;20046;-76
2023/05/29 04:05:15;;;;;;;9.13;4.38;;;12.30;96.10;;;;;;5116581;27;20023;-76
2023/05/29 04:07:41;;;;;;;7.43;4.28;;;12.30;96.20;;;;;;5112068;27;20039;-76
2023/05/29 04:10:08;;;;;;;9.40;4.85;;;12.20;96.40;;;;;;5116169;27;20550;-76
2023/05/29 04:12:40;;;;;;;10.65;4.60;;;12.30;96.50;;;;;;5112436;27;20516;-76
2023/05/29 04:15:14;;;;;;;8.85;4.88;;;12.30;96.60;;;;;;5113933;27;20024;-77
2023/05/29 04:17:49;;;;;;;11.85;5.70;;;12.30;96.80;;;;;;5113122;27;20019;-76
2023/05/29 04:20:15;;;;;;;11.07;5.07;;;12.40;97.00;;;;;;5114951;27;20118;-76
2023/05/29 04:22:41;;;;;;;13.15;6.25;;;12.40;97.30;;;;;;5110045;28;20034;-76
2023/05/29 04:25:07;;;;;;;11.88;6.20;;;12.50;97.50;;;;;;5111665;27;20027;-76
2023/05/29 04:27:37;;;;;;;11.65;5.93;;;12.60;97.50;;;;;;5111828;27;20035;-78
2023/05/29 04:30:04;;;;;;;11.07;5.53;;;12.70;97.60;;;;;;5115129;27;20012;-77
2023/05/29 04:32:33;;;;;;;10.55;5.50;;;12.70;97.70;;;;;;5112449;27;20026;-77
2023/05/29 04:35:05;;;;;;;10.48;5.55;;;12.80;97.70;;;;;;5107563;27;20023;-76
2023/05/29 04:37:37;;;;;;;9.13;5.38;;;12.80;97.80;;;;;;5113725;27;20493;-77
2023/05/29 04:40:05;;;;;;;12.75;5.68;;;12.80;97.70;;;;;;5111265;27;20032;-77
2023/05/29 04:42:33;;;;;;;9.70;5.55;;;12.90;97.70;;;;;;5110038;28;20474;-79
2023/05/29 04:45:06;;;;;;;10.48;5.60;;;12.90;97.60;;;;;;5111223;28;20055;-76
2023/05/29 04:47:42;;;;;;;11.95;6.35;;;13.00;97.50;;;;;;5116062;27;20051;-77
2023/05/29 04:50:11;;;;;;;11.90;5.90;;;13.00;97.40;;;;;;5113493;27;20020;-76
2023/05/29 04:52:43;;;;;;;9.35;5.85;;;13.10;97.40;;;;;;5113621;27;20054;-77
2023/05/29 04:55:10;;;;;;;13.43;5.95;;;13.20;97.30;;;;;;5109167;28;20036;-77
2023/05/29 04:57:42;;;;;;;11.75;6.15;;;13.30;97.30;;;;;;5115382;27;20178;-75
2023/05/29 05:00:14;;;;;;;12.82;6.22;;;13.30;97.10;;;;;;5115332;27;20023;-75
2023/05/29 05:02:42;;;;;;;8.88;5.70;;;13.50;97.10;;;;;;5111671;27;20371;-75
2023/05/29 05:05:08;;;;;;;12.13;6.13;;;13.60;96.90;;;;;;5109084;27;20082;-73
2023/05/29 05:07:34;;;;;;;14.30;6.68;;;13.70;96.90;;;;;;5111336;27;20055;-75
2023/05/29 05:10:03;;;;;;;10.80;6.38;;;13.80;96.70;;;;;;5107469;27;20434;-75
2023/05/29 05:12:32;;;;;;;13.20;6.45;;;13.90;96.70;;;;;;5111953;28;20027;-74
2023/05/29 05:14:57;;;;;;;13.23;6.47;;;14.00;96.50;;;;;;5109566;27;20027;-74
2023/05/29 05:17:23;;;;;;;12.43;6.35;;;14.10;96.40;;;;;;5106245;28;20039;-74
2023/05/29 05:19:49;;;;;;;11.48;6.10;;;14.30;96.20;;;;;;5109189;27;20051;-75
2023/05/29 05:22:15;;;;;;;10.75;6.30;;;14.40;96.00;;;;;;5109295;28;20119;-74
2023/05/29 05:24:41;;;;;;;13.68;6.18;;;14.50;95.80;;;;;;5112945;27;20019;-74
2023/05/29 05:27:07;;;;;;;12.48;6.10;;;14.60;95.50;;;;;;5125112;27;20034;-74
2023/05/29 05:29:32;;;;;;;11.57;6.28;;;14.70;95.40;;;;;;5109028;27;20378;-74
2023/05/29 05:32:01;;;;;;;15.20;6.63;;;14.80;95.10;;;;;;5118631;27;20066;-74
2023/05/29 05:34:26;;;;;;;12.73;6.07;;;14.90;94.90;;;;;;5127718;27;20512;-74
2023/05/29 05:36:55;;;;;;;10.38;6.15;;;15.00;94.80;;;;;;5121956;27;20027;-73
2023/05/29 05:39:21;;;;;;;12.90;7.03;;;15.00;94.50;;;;;;5120628;27;20027;-74
2023/05/29 05:41:46;;;;;;;12.38;6.47;;;15.10;94.50;;;;;;5121247;27;20439;-75
2023/05/29 05:44:12;;;;;;;12.35;6.50;;;15.20;94.40;;;;;;5111038;28;20110;-76
2023/05/29 05:46:38;;;;;;;10.63;5.15;;;15.30;94.40;;;;;;5112602;28;20111;-75
2023/05/29 05:49:03;;;;;;;16.00;6.30;;;15.40;94.20;;;;;;5108516;28;20027;-71
2023/05/29 05:51:29;;;;;;;12.02;5.90;;;15.50;94.10;;;;;;5110716;27;20059;-71
2023/05/29 05:53:54;;;;;;;11.40;5.85;;;15.60;94.30;;;;;;5106637;28;20023;-71
2023/05/29 05:56:20;;;;;;;8.93;5.38;;;15.70;93.90;;;;;;5105261;28;20024;-71
2023/05/29 05:58:46;;;;;;;12.07;6.40;;;15.60;93.50;;;;;;5103015;28;20135;-72
2023/05/29 06:01:11;;;;;;;11.95;5.95;;;15.60;93.50;;;;;;5105430;28;20212;-71
2023/05/29 06:03:37;;;;;;;11.13;5.80;;;15.70;93.50;;;;;;5105823;28;20493;-70
2023/05/29 06:06:09;;;;;;;15.60;6.40;;;15.70;93.60;;;;;;5105809;28;20480;-72
2023/05/29 06:08:35;;;;;;;9.13;5.60;;;15.70;93.30;;;;;;5103093;28;20031;-70
2023/05/29 06:11:01;;;;;;;8.80;5.75;;;15.80;93.30;;;;;;5106990;28;20401;-71
2023/05/29 06:13:26;;;;;;;13.98;6.18;;;15.80;93.40;;;;;;5104201;28;20030;-71
2023/05/29 06:15:52;;;;;;;11.40;6.20;;;15.90;93.30;;;;;;5105806;28;20059;-72
2023/05/29 06:18:18;;;;;;;12.63;5.53;;;16.00;93.20;;;;;;5108010;28;20024;-73
2023/05/29 06:20:44;;;;;;;11.45;6.05;;;16.10;93.00;;;;;;5099895;28;20076;-73
2023/05/29 06:23:15;;;;;;;12.68;5.50;;;16.20;92.90;;;;;;5111154;28;20137;-73
2023/05/29 06:25:41;;;;;;;11.75;4.93;;;16.40;92.80;;;;;;5106597;28;20137;-73
2023/05/29 06:28:07;;;;;;;10.65;5.13;;;16.40;92.60;;;;;;5109420;28;20027;-73
2023/05/29 06:30:33;;;;;;;11.13;5.68;;;16.50;92.30;;;;;;5113186;27;20406;-73
2023/05/29 06:33:05;;;;;;;10.55;5.20;;;16.60;92.30;;;;;;5110051;28;20024;-73
2023/05/29 06:35:31;;;;;;;13.80;6.03;;;16.50;92.00;;;;;;5110856;28;20023;-74
2023/05/29 06:38:02;;;;;;;15.02;6.00;;;16.50;92.10;;;;;;5111078;28;20027;-73
2023/05/29 06:40:28;;;;;;;10.45;5.75;;;16.50;91.90;;;;;;5123346;27;20077;-75
2023/05/29 06:42:53;;;;;;;9.77;5.18;;;16.50;92.00;;;;;;5124084;27;20031;-74
2023/05/29 06:45:19;;;;;;;10.52;6.10;;;16.60;92.00;;;;;;5115530;27;20034;-74
2023/05/29 06:47:44;;;;;;;10.38;6.03;;;16.50;92.00;;;;;;5116752;27;20030;-76
2023/05/29 06:50:10;;;;;;;14.50;6.47;;;16.60;92.10;;;;;;5128777;27;20585;-76
2023/05/29 06:52:36;;;;;;;13.60;6.05;;;16.60;91.90;;;;;;5111494;27;20079;-74
2023/05/29 06:55:02;;;;;;;11.85;6.57;;;16.60;92.00;;;;;;5117497;27;20027;-70
2023/05/29 06:57:28;;;;;;;10.05;5.85;;;16.70;92.00;;;;;;5109613;28;20096;-70
2023/05/29 06:59:54;;;;;;;12.73;5.80;;;16.80;91.90;;;;;;5115777;27;20477;-74
2023/05/29 07:02:19;;;;;;;10.25;5.65;;;16.70;91.20;;;;;;5108701;27;20433;-74
2023/05/29 07:04:48;;;;;;;10.50;5.50;;;16.80;91.10;;;;;;5112544;27;20027;-74
2023/05/29 07:07:14;;;;;;;9.95;5.70;;;16.80;91.00;;;;;;5123916;27;20153;-74
2023/05/29 07:09:39;;;;;;;9.95;5.68;;;16.80;91.00;;;;;;5109085;27;20099;-75
2023/05/29 07:12:08;;;;;;;10.93;5.38;;;16.80;91.10;;;;;;5113908;27;20440;-74
2023/05/29 07:14:33;;;;;;;11.05;5.65;;;16.80;91.30;;;;;;5118918;27;20031;-75
2023/05/29 07:17:02;;;;;;;10.50;5.43;;;16.70;91.60;;;;;;5119269;27;20023;-74
2023/05/29 07:19:34;;;;;;;10.25;5.25;;;16.80;91.90;;;;;;5121170;27;20027;-74
2023/05/29 07:22:00;;;;;;;9.25;4.63;;;16.80;92.20;;;;;;5117265;27;20023;-74
2023/05/29 07:24:26;;;;;;;10.00;5.47;;;16.80;92.30;;;;;;5113472;28;20476;-74
2023/05/29 07:26:52;;;;;;;9.38;4.88;;;16.90;92.20;;;;;;5114564;27;20031;-74
2023/05/29 07:29:20;;;;;;;12.15;5.72;;;17.00;92.10;;;;;;5111981;28;20054;-74
2023/05/29 07:31:46;;;;;;;11.02;5.72;;;17.10;92.00;;;;;;5114147;27;20423;-74
2023/05/29 07:34:12;;;;;;;11.27;5.65;;;17.10;91.90;;;;;;5113574;27;20020;-74
2023/05/29 07:37:05;;;;;;;11.27;5.13;;;17.10;91.90;;;;;;5110846;27;20020;-75
2023/05/29 07:39:37;;;;;;;10.68;5.25;;;17.20;91.70;;;;;;5122391;27;20027;-75
2023/05/29 07:42:06;;;;;;;10.38;5.30;;;17.20;91.70;;;;;;5109684;27;20027;-76
2023/05/29 07:44:32;;;;;;;9.63;5.25;;;17.10;91.50;;;;;;5112937;27;20034;-76
2023/05/29 07:47:00;;;;;;;9.80;5.03;;;17.10;91.70;;;;;;5111112;28;20031;-76
2023/05/29 07:49:30;;;;;;;8.43;4.75;;;17.20;91.70;;;;;;5115369;27;20517;-77
2023/05/29 07:51:55;;;;;;;7.35;4.47;;;17.30;91.90;;;;;;5111422;27;20405;-75
2023/05/29 07:54:22;;;;;;;9.95;5.00;;;17.30;91.80;;;;;;5105916;27;20036;-76
2023/05/29 07:56:51;;;;;;;7.22;4.60;;;17.40;91.70;;;;;;5110026;28;20498;-77
2023/05/29 07:59:17;;;;;;;7.15;4.18;;;17.60;91.60;;;;;;5107027;27;20030;-76
2023/05/29 08:01:44;;;;;;;10.20;5.38;;;17.60;91.60;;;;;;5107546;28;20020;-76
2023/05/29 08:04:09;;;;;;;6.47;4.70;;;17.80;91.60;;;;;;5114350;28;20024;-76
2023/05/29 08:06:36;;;;;;;12.32;5.10;;;17.90;91.50;;;;;;5113504;28;20061;-77
2023/05/29 08:09:02;;;;;;;10.98;5.28;;;18.00;91.50;;;;;;5117591;27;20050;-77
2023/05/29 08:11:31;;;;;;;8.55;4.70;;;18.10;91.50;;;;;;5109791;27;20032;-77
2023/05/29 08:13:58;;;;;;;8.05;5.30;;;18.20;91.40;;;;;;5114546;28;20111;-77
2023/05/29 08:16:24;;;;;;;11.23;5.38;;;18.30;91.30;;;;;;5120270;27;20076;-77
2023/05/29 08:18:50;;;;;;;11.52;5.35;;;18.30;91.10;;;;;;5117679;27;20024;-77
2023/05/29 08:21:22;;;;;;;7.13;4.32;;;18.40;90.70;;;;;;5113429;27;20051;-76
2023/05/29 08:23:47;;;;;;;9.73;5.05;;;18.60;90.50;;;;;;5110930;27;20044;-76
2023/05/29 08:26:21;;;;;;;9.00;4.78;;;18.60;90.30;;;;;;5115321;28;20143;-77
2023/05/29 08:28:47;;;;;;;8.68;4.57;;;18.70;90.30;;;;;;5112509;28;20420;-75
2023/05/29 08:31:12;;;;;;;9.95;5.90;;;18.80;90.20;;;;;;5117856;27;20107;-77
2023/05/29 08:33:38;;;;;;;8.75;5.00;;;18.90;90.10;;;;;;5110531;28;20086;-76
2023/05/29 08:36:07;;;;;;;10.88;4.60;;;18.90;90.10;;;;;;5117657;27;20028;-77
2023/05/29 08:38:36;;;;;;;7.65;4.40;;;19.00;90.10;;;;;;5111342;28;20396;-76
2023/05/29 08:41:02;;;;;;;8.65;5.03;;;19.10;90.00;;;;;;5116901;27;20027;-76
2023/05/29 08:43:32;;;;;;;6.47;4.82;;;19.20;90.00;;;;;;5115500;28;20100;-76
2023/05/29 08:46:02;;;;;;;8.98;4.65;;;19.30;89.90;;;;;;5115216;27;20022;-76
2023/05/29 08:48:31;;;;;;;10.50;5.65;;;19.30;89.60;;;;;;5117996;27;20035;-76
2023/05/29 08:50:58;;;;;;;13.38;4.90;;;19.40;89.50;;;;;;5113280;27;20068;-76
2023/05/29 08:53:25;;;;;;;6.85;4.50;;;19.50;89.50;;;;;;5108722;28;20031;-77
2023/05/29 08:55:52;;;;;;;9.10;5.15;;;19.60;89.30;;;;;;5113597;27;20036;-77
2023/05/29 08:58:23;;;;;;;8.45;4.60;;;19.60;89.20;;;;;;5108947;28;20032;-76
2023/05/29 09:00:49;;;;;;;9.27;5.15;;;19.70;89.40;;;;;;5111884;28;20450;-76
2023/05/29 09:03:15;;;;;;;9.85;4.88;;;19.80;89.00;;;;;;5109646;28;20026;-76
2023/05/29 09:05:41;;;;;;;12.65;4.70;;;19.90;88.90;;;;;;5114607;27;20023;-76
2023/05/29 09:08:11;;;;;;;9.30;5.30;;;20.00;89.20;;;;;;5114724;27;20023;-76
2023/05/29 09:10:44;;;;;;;8.20;4.70;;;20.00;89.20;;;;;;5117059;27;20103;-76
2023/05/29 09:13:13;;;;;;;10.70;4.57;;;20.10;89.20;;;;;;5110980;28;20042;-76
2023/05/29 09:15:42;;;;;;;8.82;4.50;;;20.20;88.80;;;;;;5120346;27;20028;-76
2023/05/29 09:18:09;;;;;;;6.88;4.97;;;20.30;89.00;;;;;;5113441;27;20023;-76
2023/05/29 09:20:34;;;;;;;9.30;4.63;;;20.40;88.30;;;;;;5113130;27;20027;-76
2023/05/29 09:23:03;;;;;;;10.38;4.30;;;20.50;88.00;;;;;;5113539;27;20027;-76
2023/05/29 09:25:35;;;;;;;8.30;5.13;;;20.70;87.20;;;;;;5117712;27;20026;-76
2023/05/29 09:28:08;;;;;;;8.38;5.07;;;20.80;86.20;;;;;;5111162;28;20058;-75
2023/05/29 09:30:35;;;;;;;9.57;4.75;;;20.80;85.80;;;;;;5115336;27;20084;-76
2023/05/29 09:33:02;;;;;;;8.40;4.93;;;20.90;85.50;;;;;;5114522;28;20027;-76
2023/05/29 09:35:44;;;;;;;10.40;5.13;;;21.00;85.00;;;;;;5109784;28;20107;-75
2023/05/29 09:38:15;;;;;;;7.75;4.68;;;21.00;85.00;;;;;;5109956;27;20035;-76
2023/05/29 09:40:41;;;;;;;8.13;4.45;;;21.10;84.80;;;;;;5108704;27;20024;-76
2023/05/29 09:43:16;;;;;;;9.40;5.05;;;21.20;84.10;;;;;;5112848;27;20424;-76
2023/05/29 09:45:46;;;;;;;9.20;4.85;;;21.30;82.50;;;;;;5119293;27;20027;-76
2023/05/29 09:48:17;;;;;;;7.32;4.30;;;21.30;82.50;;;;;;5119207;27;20027;-76
2023/05/29 09:50:47;;;;;;;9.88;5.25;;;21.40;82.00;;;;;;5110619;28;20031;-76
2023/05/29 09:53:24;;;;;;;12.90;5.65;;;21.40;81.70;;;;;;5124359;27;20042;-76
2023/05/29 09:55:51;;;;;;;8.55;4.47;;;21.50;81.10;;;;;;5110529;28;20026;-76
2023/05/29 09:58:23;;;;;;;11.07;4.45;;;21.60;78.80;;;;;;5106255;28;20028;-77
2023/05/29 10:00:51;;;;;;;13.48;5.93;;;21.70;78.50;;;;;;5108067;28;20064;-76
2023/05/29 10:03:17;;;;;;;10.00;5.72;;;21.80;78.60;;;;;;5108417;28;20028;-76
2023/05/29 10:05:47;;;;;;;8.05;4.57;;;21.90;77.30;;;;;;5108465;28;20027;-76
2023/05/29 10:08:17;;;;;;;9.98;4.28;;;22.00;75.40;;;;;;5111971;28;20643;-76
2023/05/29 10:10:46;;;;;;;6.13;3.85;;;22.10;74.80;;;;;;5106687;28;20053;-75
2023/05/29 10:13:16;;;;;;;7.80;4.00;;;22.20;73.10;;;;;;5104582;28;20046;-75
2023/05/29 10:15:45;;;;;;;7.38;4.53;;;22.20;73.20;;;;;;5109334;28;20076;-76
2023/05/29 10:18:22;;;;;;;6.70;4.43;;;22.30;73.30;;;;;;5109580;27;20474;-76
2023/05/29 10:20:55;;;;;;;7.10;3.95;;;22.30;73.20;;;;;;5113133;27;20041;-76
2023/05/29 10:23:25;;;;;;;11.13;5.05;;;22.40;73.10;;;;;;5107539;28;20030;-76
2023/05/29 10:25:59;;;;;;;8.05;4.25;;;22.40;73.60;;;;;;5109894;27;20035;-76
2023/05/29 10:28:25;;;;;;;9.27;4.70;;;22.50;73.60;;;;;;5104498;27;20019;-76
2023/05/29 10:30:56;;;;;;;11.02;4.70;;;22.50;73.80;;;;;;5110725;27;20041;-77
2023/05/29 10:33:22;;;;;;;8.15;4.38;;;22.50;72.90;;;;;;5113546;27;20035;-75
2023/05/29 10:35:55;;;;;;;6.80;3.80;;;22.50;73.30;;;;;;5108404;27;20024;-76
2023/05/29 10:38:21;;;;;;;7.47;4.70;;;22.50;73.00;;;;;;5116344;27;20023;-75
2023/05/29 10:40:47;;;;;;;9.75;4.70;;;22.50;73.50;;;;;;5116731;27;20027;-76
2023/05/29 10:43:33;;;;;;;12.55;4.20;;;22.50;72.90;;;;;;5117955;27;20034;-75
2023/05/29 10:45:59;;;;;;;7.30;4.38;;;22.50;72.90;;;;;;5110499;28;20031;-76
2023/05/29 10:48:28;;;;;;;13.95;4.53;;;22.60;73.20;;;;;;5114828;28;20016;-76
2023/05/29 10:50:55;;;;;;;7.55;4.00;;;22.70;72.70;;;;;;5111152;27;20027;-72
2023/05/29 10:53:26;;;;;;;6.85;4.00;;;22.70;73.50;;;;;;5109182;28;20047;-73
2023/05/29 10:55:53;;;;;;;11.85;4.55;;;22.80;72.80;;;;;;5122280;27;20034;-71
2023/05/29 10:58:24;;;;;;;6.05;3.60;;;22.90;72.90;;;;;;5079701;22;20048;-69
2023/05/29 11:00:53;;;;;;;8.05;3.97;;;22.90;71.80;;;;;;5065384;28;20016;-70
2023/05/29 11:03:23;;;;;;;8.13;4.15;;;23.00;70.60;;;;;;5066582;28;20020;-71
2023/05/29 11:06:07;;;;;;;7.65;4.30;;;22.90;70.00;;;;;;5064035;28;20028;-71
2023/05/29 11:08:55;;;;;;;9.05;4.30;;;22.90;70.20;;;;;;5064082;28;20079;-71
2023/05/29 11:11:33;;;;;;;6.00;3.63;;;22.90;70.20;;;;;;5057667;28;20036;-71
2023/05/29 11:14:05;;;;;;;6.65;4.00;;;23.00;70.70;;;;;;5066735;28;20035;-71
2023/05/29 11:16:37;;;;;;;7.68;3.75;;;23.00;69.20;;;;;;5050897;28;20027;-71
2023/05/29 11:19:10;;;;;;;5.38;3.55;;;23.00;68.70;;;;;;5065724;28;20028;-71
2023/05/29 11:21:44;;;;;;;6.97;3.80;;;23.00;68.20;;;;;;5068774;28;20106;-71
2023/05/29 11:24:17;;;;;;;5.70;3.88;;;23.00;68.00;;;;;;5066979;28;20491;-73
2023/05/29 11:26:45;;;;;;;8.70;3.67;;;23.00;68.20;;;;;;5074642;28;20524;-71
2023/05/29 11:29:13;;;;;;;6.70;3.50;;;23.10;68.30;;;;;;5079820;28;20029;-70
2023/05/29 11:31:40;;;;;;;7.07;3.70;;;23.10;67.70;;;;;;5055075;28;20028;-70
2023/05/29 11:34:14;;;;;;;9.32;4.10;;;23.10;67.00;;;;;;5055008;28;20494;-69
2023/05/29 11:36:40;;;;;;;6.43;3.00;;;23.10;66.90;;;;;;5055083;28;20028;-70
2023/05/29 11:39:08;;;;;;;6.15;3.33;;;23.10;66.90;;;;;;5073128;28;20040;-70
2023/05/29 11:41:34;;;;;;;10.05;3.80;;;23.10;66.90;;;;;;5072704;28;20016;-70
2023/05/29 11:44:05;;;;;;;4.53;3.00;;;23.10;66.70;;;;;;5073085;28;20031;-69
2023/05/29 11:46:32;;;;;;;8.43;3.35;;;23.10;66.30;;;;;;5073276;28;20147;-71
2023/05/29 11:49:01;;;;;;;7.82;4.00;;;23.10;66.10;;;;;;5052346;28;20048;-70
2023/05/29 11:51:27;;;;;;;8.60;3.78;;;23.10;65.90;;;;;;5074937;28;20494;-70
2023/05/29 11:54:04;;;;;;;4.50;2.92;;;23.20;66.00;;;;;;5069445;28;20502;-70
2023/05/29 11:56:30;;;;;;;9.55;3.88;;;23.20;65.20;;;;;;5052936;28;20033;-70
2023/05/29 11:58:59;;;;;;;8.32;3.53;;;23.20;65.00;;;;;;5035289;28;20140;-69
2023/05/29 12:01:26;;;;;;;5.70;3.35;;;23.30;64.70;;;;;;5053342;28;20025;-69
2023/05/29 12:03:53;;;;;;;7.72;3.45;;;23.30;64.50;;;;;;5053097;28;20029;-70
2023/05/29 12:06:35;;;;;;;6.47;3.22;;;23.30;64.10;;;;;;5052718;28;20056;-71
2023/05/29 12:09:02;;;;;;;7.65;3.80;;;23.30;63.40;;;;;;5052533;28;20593;-70
2023/05/29 12:11:31;;;;;;;6.50;3.10;;;23.40;64.40;;;;;;5052833;28;20043;-70
2023/05/29 12:14:01;;;;;;;5.53;3.20;;;23.50;62.40;;;;;;5035362;28;20043;-70
2023/05/29 12:16:34;;;;;;;7.13;3.75;;;23.40;61.50;;;;;;5066364;28;20293;-73
2023/05/29 12:19:00;;;;;;;7.20;3.47;;;23.50;60.80;;;;;;5071855;28;20096;-70
2023/05/29 12:21:27;;;;;;;9.13;3.05;;;23.60;59.40;;;;;;5073176;28;20052;-69
2023/05/29 12:23:54;;;;;;;7.40;2.78;;;23.60;57.70;;;;;;5073183;28;20040;-72
2023/05/29 12:26:23;;;;;;;4.50;3.15;;;23.60;59.00;;;;;;5072871;28;20107;-71
2023/05/29 12:28:52;;;;;;;7.20;3.40;;;23.60;58.50;;;;;;5073298;28;20482;-71
2023/05/29 12:31:30;;;;;;;4.97;3.08;;;23.50;56.70;;;;;;5073830;28;20107;-72
2023/05/29 12:34:01;;;;;;;4.22;2.72;;;23.60;55.30;;;;;;5073488;28;20094;-72
2023/05/29 12:36:27;;;;;;;5.82;3.10;;;23.60;53.60;;;;;;5055478;28;20028;-71
2023/05/29 12:38:53;;;;;;;6.05;2.90;;;23.60;52.90;;;;;;5073078;28;20495;-72
2023/05/29 12:41:33;;;;;;;8.27;3.50;;;23.60;53.70;;;;;;5072183;28;20439;-70
2023/05/29 12:44:02;;;;;;;4.45;2.85;;;23.60;54.10;;;;;;5072742;28;20020;-70
2023/05/29 12:46:38;;;;;;;5.50;2.85;;;23.70;54.60;;;;;;5072982;28;20039;-71
2023/05/29 12:49:20;;;;;;;4.47;3.25;;;23.70;53.90;;;;;;5072242;28;20047;-74